Arkport, New York
Current Conditions -  °F | °C
As of 2:54 PM on Monday 26 Jan 2015 (Local Time) from KDSV Reporting Station
Light Snow Light Snow  
Wind Chill:   Ceiling: 2400
Heat Index: 15°   Visibility: 1.2mi
Dew Point: 10°   Wind: 7mph
Humidity: 80%   Direction: 360°N
Pressure: 29.88"   Gusts: NA
Location:  42.39°N, 77.7°W
Report Text: KDSV 261954Z AUTO 36006KT 1 1/4SM -SN BKN024 OVC033 M09/M12 A2988 RMK AO2 SLP141 P0000 T10941122
Loading
Personal Weather Stations






























Interactive Weather Map New forecast layout! Learn more

10-Day Weather Forecast

Advertisements
Track Severe Weather on mobile